createdAt,value
2023-01-27T00:01:22.123Z,81.68
2023-01-27T00:03:48.484Z,81.97
2023-01-27T00:06:14.846Z,81.80
2023-01-27T00:08:41.169Z,81.77
2023-01-27T00:11:07.717Z,81.61
2023-01-27T00:13:34.049Z,81.43
2023-01-27T00:16:00.429Z,81.58
2023-01-27T00:18:26.806Z,81.79
2023-01-27T00:20:53.124Z,81.69
2023-01-27T00:23:19.438Z,81.39
2023-01-27T00:25:45.767Z,81.42
2023-01-27T00:28:12.114Z,82.05
2023-01-27T00:30:38.452Z,81.60
2023-01-27T00:33:04.801Z,82.05
2023-01-27T00:35:31.125Z,81.80
2023-01-27T00:37:57.658Z,81.61
2023-01-27T00:40:23.990Z,81.88
2023-01-27T00:42:50.322Z,81.84
2023-01-27T00:45:16.651Z,81.50
2023-01-27T00:47:42.984Z,81.47
2023-01-27T00:50:09.323Z,81.66
2023-01-27T00:52:35.658Z,81.14
2023-01-27T00:55:01.984Z,81.52
2023-01-27T00:57:28.312Z,81.49
2023-01-27T00:59:54.641Z,81.53
2023-01-27T01:02:20.992Z,81.66
2023-01-27T01:04:47.328Z,81.43
2023-01-27T01:07:13.853Z,81.44
2023-01-27T01:09:40.166Z,81.82
2023-01-27T01:12:06.719Z,81.44
2023-01-27T01:14:33.068Z,81.59
2023-01-27T01:16:59.414Z,81.56
2023-01-27T01:19:25.733Z,81.56
2023-01-27T01:21:52.119Z,81.32
2023-01-27T01:24:18.447Z,81.50
2023-01-27T01:26:44.791Z,81.55
2023-01-27T01:29:11.127Z,81.66
2023-01-27T01:31:37.524Z,81.73
2023-01-27T01:34:04.088Z,81.44
2023-01-27T01:36:30.432Z,81.38
2023-01-27T01:38:56.775Z,81.64
2023-01-27T01:41:23.287Z,81.58
2023-01-27T01:43:49.624Z,81.40
2023-01-27T01:46:15.984Z,81.79
2023-01-27T01:48:42.352Z,81.60
2023-01-27T01:51:08.868Z,81.37
2023-01-27T01:53:35.189Z,81.29
2023-01-27T01:56:01.512Z,81.38
2023-01-27T01:58:27.875Z,81.37
2023-01-27T02:00:54.228Z,81.43
2023-01-27T02:03:20.567Z,81.33
2023-01-27T02:05:46.903Z,81.65
2023-01-27T02:08:13.448Z,81.61
2023-01-27T02:10:39.977Z,81.57
2023-01-27T02:13:06.313Z,81.41
2023-01-27T02:15:32.645Z,81.14
2023-01-27T02:17:59.236Z,81.74
2023-01-27T02:20:25.567Z,81.75
2023-01-27T02:22:51.891Z,81.43
2023-01-27T02:25:18.225Z,81.76
2023-01-27T02:27:44.554Z,81.84
2023-01-27T02:30:10.888Z,81.72
2023-01-27T02:32:39.289Z,81.28
2023-01-27T02:35:06.498Z,81.85
2023-01-27T02:37:32.825Z,81.55
2023-01-27T02:39:59.380Z,81.15
2023-01-27T02:42:25.746Z,81.59
2023-01-27T02:44:52.330Z,81.64
2023-01-27T02:47:18.750Z,81.52
2023-01-27T02:49:45.105Z,81.37
2023-01-27T02:52:11.450Z,81.52
2023-01-27T02:54:38.072Z,81.53
2023-01-27T02:57:04.613Z,81.31
2023-01-27T02:59:31.166Z,81.41
2023-01-27T03:01:57.536Z,81.42
2023-01-27T03:04:23.899Z,81.24
2023-01-27T03:06:50.268Z,81.22
2023-01-27T03:09:16.627Z,81.40
2023-01-27T03:11:43.190Z,81.36
2023-01-27T03:14:09.539Z,81.28
2023-01-27T03:16:35.890Z,81.32
2023-01-27T03:19:02.225Z,81.51
2023-01-27T03:21:28.574Z,81.55
2023-01-27T03:23:54.951Z,81.59
2023-01-27T03:26:21.316Z,81.65
2023-01-27T03:28:47.893Z,81.15
2023-01-27T03:31:14.342Z,81.08
2023-01-27T03:33:40.701Z,81.46
2023-01-27T03:36:07.045Z,81.32
2023-01-27T03:38:33.395Z,81.11
2023-01-27T03:40:59.740Z,81.33
2023-01-27T03:43:26.072Z,81.24
2023-01-27T03:45:52.444Z,81.50
2023-01-27T03:48:18.976Z,81.56
2023-01-27T03:50:45.307Z,81.47
2023-01-27T03:53:11.655Z,81.28
2023-01-27T03:55:38.232Z,81.47
2023-01-27T03:58:04.597Z,81.39
2023-01-27T04:00:30.959Z,81.78
2023-01-27T04:02:57.346Z,81.44
2023-01-27T04:05:23.723Z,81.67
2023-01-27T04:07:50.253Z,81.44
2023-01-27T04:10:16.581Z,81.52
2023-01-27T04:12:42.911Z,81.17
2023-01-27T04:15:09.261Z,81.10
2023-01-27T04:17:35.602Z,81.41
2023-01-27T04:20:02.154Z,81.80
2023-01-27T04:22:28.495Z,81.33
2023-01-27T04:24:54.857Z,81.48
2023-01-27T04:27:21.226Z,81.06
2023-01-27T04:29:47.582Z,81.51
2023-01-27T04:32:13.941Z,81.43
2023-01-27T04:34:40.293Z,81.01
2023-01-27T04:37:06.652Z,81.33
2023-01-27T04:39:32.997Z,81.26
2023-01-27T04:41:59.351Z,81.00
2023-01-27T04:44:25.923Z,81.44
2023-01-27T04:46:52.252Z,81.00
2023-01-27T04:49:18.626Z,81.67
2023-01-27T04:51:46.304Z,81.69
2023-01-27T04:54:13.572Z,81.45
2023-01-27T04:56:40.016Z,81.01
2023-01-27T04:59:06.568Z,81.36
2023-01-27T05:01:32.961Z,81.34
2023-01-27T05:03:59.310Z,81.20
2023-01-27T05:06:25.859Z,81.35
2023-01-27T05:08:52.192Z,81.10
2023-01-27T05:11:18.538Z,81.23
2023-01-27T05:13:44.878Z,81.53
2023-01-27T05:16:11.287Z,81.23
2023-01-27T05:18:37.641Z,81.21
2023-01-27T05:21:03.980Z,81.50
2023-01-27T05:23:30.345Z,81.23
2023-01-27T05:25:56.690Z,81.39
2023-01-27T05:28:23.030Z,81.74
2023-01-27T05:30:49.451Z,81.67
2023-01-27T05:33:15.855Z,81.46
2023-01-27T05:35:42.209Z,81.62
2023-01-27T05:38:08.579Z,81.32
2023-01-27T05:40:35.095Z,80.93
2023-01-27T05:43:01.464Z,80.87
2023-01-27T05:45:27.829Z,81.37
2023-01-27T05:47:54.214Z,81.55
2023-01-27T05:50:20.584Z,81.47
2023-01-27T05:52:46.939Z,81.40
2023-01-27T05:55:13.493Z,81.40
2023-01-27T05:57:40.038Z,81.27
2023-01-27T06:00:06.382Z,80.75
2023-01-27T06:02:32.932Z,81.03
2023-01-27T06:04:59.270Z,81.11
2023-01-27T06:07:25.608Z,81.11
2023-01-27T06:09:51.972Z,81.32
2023-01-27T06:12:18.322Z,81.15
2023-01-27T06:14:44.675Z,81.53
2023-01-27T06:17:11.064Z,81.30
2023-01-27T06:19:38.286Z,81.43
2023-01-27T06:22:04.634Z,81.17
2023-01-27T06:24:31.047Z,81.15
2023-01-27T06:26:57.409Z,81.36
2023-01-27T06:29:23.764Z,81.52
2023-01-27T06:31:50.312Z,81.02
2023-01-27T06:34:16.703Z,81.37
2023-01-27T06:36:43.062Z,80.86
2023-01-27T06:39:09.415Z,81.19
2023-01-27T06:41:35.746Z,80.92
2023-01-27T06:44:02.069Z,81.31
2023-01-27T06:46:28.444Z,81.33
2023-01-27T06:48:54.800Z,81.44
2023-01-27T06:51:21.143Z,80.90
2023-01-27T06:53:47.482Z,81.27
2023-01-27T06:56:15.686Z,80.85
2023-01-27T06:58:42.751Z,81.39
2023-01-27T07:01:09.145Z,81.39
2023-01-27T07:03:36.287Z,80.90
2023-01-27T07:06:02.633Z,81.40
2023-01-27T07:08:29.017Z,81.13
2023-01-27T07:10:55.383Z,81.34
2023-01-27T07:13:21.734Z,81.32
2023-01-27T07:15:48.093Z,80.86
2023-01-27T07:18:14.489Z,81.30
2023-01-27T07:20:40.844Z,80.85
2023-01-27T07:23:07.406Z,81.34
2023-01-27T07:25:33.764Z,81.26
2023-01-27T07:28:00.130Z,80.86
2023-01-27T07:30:26.489Z,81.13
2023-01-27T07:32:52.820Z,81.40
2023-01-27T07:35:19.168Z,81.09
2023-01-27T07:37:45.501Z,81.12
2023-01-27T07:40:12.321Z,81.09
2023-01-27T07:42:38.931Z,81.49
2023-01-27T07:45:05.280Z,81.35
2023-01-27T07:47:31.614Z,80.87
2023-01-27T07:49:57.974Z,80.91
2023-01-27T07:52:24.345Z,80.96
2023-01-27T07:54:50.708Z,81.24
2023-01-27T07:57:17.157Z,81.34
2023-01-27T07:59:43.761Z,81.21
2023-01-27T08:02:10.339Z,81.26
2023-01-27T08:04:50.905Z,81.02
2023-01-27T08:07:18.717Z,81.12
2023-01-27T08:09:45.292Z,81.31
2023-01-27T08:12:11.660Z,81.58
2023-01-27T08:14:37.998Z,81.23
2023-01-27T08:17:04.342Z,81.21
2023-01-27T08:19:30.684Z,80.71
2023-01-27T08:21:57.034Z,80.88
2023-01-27T08:24:26.709Z,81.19
2023-01-27T08:26:53.073Z,80.97
2023-01-27T08:29:19.430Z,80.74
2023-01-27T08:31:45.845Z,80.80
2023-01-27T08:34:12.442Z,80.72
2023-01-27T08:36:38.788Z,80.43
2023-01-27T08:39:05.198Z,80.45
2023-01-27T08:41:31.553Z,81.31
2023-01-27T08:43:57.895Z,82.08
2023-01-27T08:46:24.269Z,81.83
2023-01-27T08:48:50.594Z,81.61
2023-01-27T08:51:17.172Z,81.48
2023-01-27T08:53:43.509Z,81.43
2023-01-27T08:56:09.843Z,81.31
2023-01-27T08:58:36.199Z,81.17
2023-01-27T09:01:02.576Z,81.17
2023-01-27T09:03:29.168Z,81.00
2023-01-27T09:05:55.531Z,81.30
2023-01-27T09:08:21.863Z,81.37
2023-01-27T09:10:48.190Z,81.32
2023-01-27T09:13:14.538Z,81.29
2023-01-27T09:15:40.872Z,81.14
2023-01-27T09:18:07.963Z,80.67
2023-01-27T09:20:34.674Z,80.60
2023-01-27T09:23:01.231Z,80.93
2023-01-27T09:25:27.562Z,81.05
2023-01-27T09:27:53.914Z,80.50
2023-01-27T09:30:20.473Z,80.48
2023-01-27T09:32:46.807Z,80.45
2023-01-27T09:35:13.689Z,80.17
2023-01-27T09:37:40.409Z,80.43
2023-01-27T09:40:06.743Z,80.46
2023-01-27T09:42:33.138Z,79.93
2023-01-27T09:44:59.507Z,80.38
2023-01-27T09:47:26.081Z,80.34
2023-01-27T09:49:52.422Z,80.42
2023-01-27T09:52:18.760Z,80.27
2023-01-27T09:54:45.090Z,80.30
2023-01-27T09:57:11.634Z,80.17
2023-01-27T09:59:38.180Z,80.21
2023-01-27T10:02:04.511Z,80.14
2023-01-27T10:04:30.874Z,80.36
2023-01-27T10:06:57.232Z,80.47
2023-01-27T10:09:23.791Z,80.20
2023-01-27T10:11:50.179Z,80.83
2023-01-27T10:14:16.540Z,80.13
2023-01-27T10:16:42.856Z,79.92
2023-01-27T10:19:09.191Z,80.94
2023-01-27T10:21:35.586Z,81.22
2023-01-27T10:24:02.242Z,81.08
2023-01-27T10:26:28.597Z,80.82
2023-01-27T10:28:54.956Z,80.62
2023-01-27T10:31:21.369Z,80.58
2023-01-27T10:33:48.015Z,80.44
2023-01-27T10:36:14.363Z,80.52
2023-01-27T10:38:40.700Z,80.39
2023-01-27T10:41:07.057Z,80.52
2023-01-27T10:43:34.064Z,80.46
2023-01-27T10:46:00.778Z,80.53
2023-01-27T10:48:27.195Z,80.69
2023-01-27T10:50:53.585Z,80.90
2023-01-27T10:53:19.964Z,80.71
2023-01-27T10:55:46.313Z,80.01
2023-01-27T10:58:12.669Z,80.15
2023-01-27T11:01:13.320Z,79.68
2023-01-27T11:03:26.310Z,79.69
2023-01-27T11:05:52.692Z,79.84
2023-01-27T11:08:19.074Z,79.88
2023-01-27T11:10:45.441Z,79.88
2023-01-27T11:13:11.790Z,80.07
2023-01-27T11:15:38.151Z,80.21
2023-01-27T11:18:04.498Z,80.18
2023-01-27T11:20:30.863Z,80.49
2023-01-27T11:22:57.229Z,80.09
2023-01-27T11:25:23.568Z,80.75
2023-01-27T11:27:50.126Z,80.17
2023-01-27T11:30:16.951Z,80.13
2023-01-27T11:32:43.724Z,80.39
2023-01-27T11:35:10.067Z,80.24
2023-01-27T11:37:36.395Z,80.59
2023-01-27T11:40:02.745Z,80.59
2023-01-27T11:42:29.299Z,80.50
2023-01-27T11:44:55.637Z,80.06
2023-01-27T11:47:21.942Z,80.52
2023-01-27T11:49:48.290Z,80.79
2023-01-27T11:52:14.654Z,80.55
2023-01-27T11:54:40.994Z,80.80
2023-01-27T11:57:07.336Z,80.46
2023-01-27T11:59:33.688Z,80.50
2023-01-27T12:02:00.266Z,80.33
2023-01-27T12:04:26.635Z,80.35
2023-01-27T12:06:53.218Z,80.77
2023-01-27T12:09:19.560Z,80.60
2023-01-27T12:11:46.220Z,80.82
2023-01-27T12:14:12.579Z,80.68
2023-01-27T12:16:38.930Z,80.55
2023-01-27T12:19:05.285Z,80.36
2023-01-27T12:21:31.669Z,80.69
2023-01-27T12:23:58.088Z,80.23
2023-01-27T12:26:24.702Z,80.92
2023-01-27T12:28:51.066Z,80.68
2023-01-27T12:31:17.798Z,80.79
2023-01-27T12:33:44.244Z,80.83
2023-01-27T12:36:10.585Z,80.58
2023-01-27T12:38:37.121Z,80.53
2023-01-27T12:41:03.455Z,80.40
2023-01-27T12:43:29.806Z,80.64
2023-01-27T12:45:56.137Z,80.79
2023-01-27T12:48:22.489Z,80.62
2023-01-27T12:50:48.840Z,80.56
2023-01-27T12:53:15.199Z,80.63
2023-01-27T12:55:41.746Z,80.30
2023-01-27T12:58:08.073Z,80.14
2023-01-27T13:00:34.492Z,80.10
2023-01-27T13:03:00.918Z,79.76
2023-01-27T13:05:27.245Z,79.80
2023-01-27T13:07:53.577Z,79.38
2023-01-27T13:10:19.933Z,80.12
2023-01-27T13:12:46.273Z,80.32
2023-01-27T13:15:12.602Z,81.01
2023-01-27T13:17:38.970Z,80.78
2023-01-27T13:20:05.531Z,80.70
2023-01-27T13:22:31.879Z,80.67
2023-01-27T13:24:58.223Z,80.55
2023-01-27T13:27:24.573Z,80.57
2023-01-27T13:29:50.955Z,80.61
2023-01-27T13:32:17.334Z,80.67
2023-01-27T13:34:43.685Z,80.74
2023-01-27T13:37:10.043Z,80.09
2023-01-27T13:39:36.387Z,79.57
2023-01-27T13:42:02.724Z,79.56
2023-01-27T13:44:29.058Z,79.67
2023-01-27T13:46:55.890Z,79.74
2023-01-27T13:49:22.267Z,79.66
2023-01-27T13:51:48.822Z,79.78
2023-01-27T13:54:15.189Z,79.67
2023-01-27T13:56:41.543Z,79.87
2023-01-27T13:59:07.902Z,79.81
2023-01-27T14:01:34.275Z,79.67
2023-01-27T14:04:00.837Z,79.86
2023-01-27T14:06:27.183Z,79.82
2023-01-27T14:08:53.826Z,80.10
2023-01-27T14:11:20.160Z,79.86
2023-01-27T14:13:46.535Z,79.97
2023-01-27T14:16:12.939Z,79.82
2023-01-27T14:18:39.557Z,79.75
2023-01-27T14:21:05.893Z,79.75
2023-01-27T14:23:32.390Z,80.23
2023-01-27T14:25:58.921Z,79.84
2023-01-27T14:28:25.530Z,80.40
2023-01-27T14:30:52.122Z,80.35
2023-01-27T14:33:18.522Z,79.91
2023-01-27T14:35:44.866Z,80.18
2023-01-27T14:38:11.259Z,80.22
2023-01-27T14:40:37.623Z,80.17
2023-01-27T14:43:04.163Z,80.42
2023-01-27T14:45:30.482Z,80.48
2023-01-27T14:47:56.856Z,80.52
2023-01-27T14:50:23.203Z,80.56
2023-01-27T14:52:49.795Z,80.34
2023-01-27T14:55:16.347Z,80.45
2023-01-27T14:57:42.816Z,80.36
2023-01-27T15:00:09.150Z,80.52
2023-01-27T15:02:35.512Z,80.08
2023-01-27T15:05:01.869Z,80.44
2023-01-27T15:07:28.228Z,80.19
2023-01-27T15:09:54.636Z,80.38
2023-01-27T15:12:20.967Z,80.64
2023-01-27T15:14:47.802Z,80.99
2023-01-27T15:17:14.469Z,80.42
2023-01-27T15:19:40.830Z,80.60
2023-01-27T15:22:10.616Z,80.65
2023-01-27T15:24:37.204Z,80.14
2023-01-27T15:27:03.752Z,80.27
2023-01-27T15:29:30.095Z,80.16
2023-01-27T15:31:56.508Z,80.31
2023-01-27T15:34:23.186Z,80.31
2023-01-27T15:36:49.759Z,80.27
2023-01-27T15:39:16.112Z,80.64
2023-01-27T15:41:42.472Z,80.53
2023-01-27T15:44:08.812Z,80.64
2023-01-27T15:46:35.153Z,80.45
2023-01-27T15:49:01.715Z,80.59
2023-01-27T15:51:28.061Z,80.36
2023-01-27T15:53:54.606Z,80.88
2023-01-27T15:56:20.959Z,80.30
2023-01-27T15:58:47.285Z,80.37
2023-01-27T16:01:13.646Z,80.18
2023-01-27T16:03:40.199Z,80.33
2023-01-27T16:06:06.535Z,80.21
2023-01-27T16:08:32.868Z,80.45
2023-01-27T16:10:59.246Z,80.73
2023-01-27T16:13:25.619Z,81.50
2023-01-27T16:15:51.988Z,81.43
2023-01-27T16:18:18.347Z,81.11
2023-01-27T16:20:44.701Z,81.14
2023-01-27T16:23:11.025Z,80.80
2023-01-27T16:25:37.366Z,80.68
2023-01-27T16:28:03.776Z,80.76
2023-01-27T16:30:30.203Z,80.77
2023-01-27T16:32:56.550Z,80.91
2023-01-27T16:35:23.099Z,80.76
2023-01-27T16:37:49.446Z,80.45
2023-01-27T16:40:15.773Z,79.61
2023-01-27T16:42:42.117Z,79.53
2023-01-27T16:45:10.278Z,79.65
2023-01-27T16:47:37.756Z,79.80
2023-01-27T16:50:04.199Z,79.64
2023-01-27T16:52:41.269Z,79.66
2023-01-27T16:55:08.704Z,79.94
2023-01-27T16:57:35.039Z,80.52
2023-01-27T17:00:01.385Z,79.95
2023-01-27T17:02:27.726Z,80.11
2023-01-27T17:04:54.087Z,80.51
2023-01-27T17:07:20.505Z,80.17
2023-01-27T17:09:46.878Z,80.31
2023-01-27T17:12:13.223Z,80.06
2023-01-27T17:14:39.721Z,80.25
2023-01-27T17:17:06.198Z,80.18
2023-01-27T17:19:32.600Z,80.24
2023-01-27T17:21:58.943Z,80.17
2023-01-27T17:24:25.325Z,80.73
2023-01-27T17:26:51.714Z,80.34
2023-01-27T17:29:18.265Z,80.14
2023-01-27T17:31:44.801Z,80.30
2023-01-27T17:34:11.211Z,80.37
2023-01-27T17:36:37.566Z,80.04
2023-01-27T17:39:03.929Z,80.04
2023-01-27T17:41:30.297Z,80.28
2023-01-27T17:43:56.664Z,80.39
2023-01-27T17:46:23.041Z,80.58
2023-01-27T17:48:49.405Z,80.45
2023-01-27T17:51:15.975Z,80.45
2023-01-27T17:53:42.331Z,80.50
2023-01-27T17:56:08.677Z,80.83
2023-01-27T17:58:35.031Z,80.40
2023-01-27T18:01:01.382Z,80.40
2023-01-27T18:03:27.759Z,80.31
2023-01-27T18:05:54.128Z,80.63
2023-01-27T18:08:20.470Z,80.48
2023-01-27T18:10:46.828Z,80.57
2023-01-27T18:13:13.149Z,80.34
2023-01-27T18:15:39.566Z,80.71
2023-01-27T18:18:05.949Z,80.92
2023-01-27T18:20:32.295Z,80.93
2023-01-27T18:22:58.851Z,80.65
2023-01-27T18:25:25.196Z,80.66
2023-01-27T18:27:51.527Z,80.67
2023-01-27T18:30:17.876Z,81.07
2023-01-27T18:32:44.289Z,81.03
2023-01-27T18:35:10.669Z,80.57
2023-01-27T18:37:37.021Z,80.83
2023-01-27T18:40:03.367Z,80.42
2023-01-27T18:42:29.738Z,80.77
2023-01-27T18:44:56.299Z,81.01
2023-01-27T18:47:22.645Z,80.82
2023-01-27T18:49:49.061Z,80.99
2023-01-27T18:52:15.400Z,80.61
2023-01-27T18:54:41.732Z,81.05
2023-01-27T18:57:08.056Z,80.40
2023-01-27T18:59:34.404Z,80.44
2023-01-27T19:02:00.935Z,80.39
2023-01-27T19:04:27.353Z,80.72
2023-01-27T19:06:53.688Z,80.32
2023-01-27T19:09:20.032Z,80.63
2023-01-27T19:11:46.409Z,80.86
2023-01-27T19:14:12.799Z,80.72
2023-01-27T19:16:39.157Z,80.80
2023-01-27T19:19:05.526Z,80.58
2023-01-27T19:21:31.876Z,80.61
2023-01-27T19:23:58.247Z,80.82
2023-01-27T19:26:24.638Z,80.65
2023-01-27T19:28:51.032Z,80.65
2023-01-27T19:31:17.516Z,80.47
2023-01-27T19:33:43.959Z,80.78
2023-01-27T19:36:10.299Z,80.24
2023-01-27T19:38:36.649Z,80.05
2023-01-27T19:41:03.025Z,79.80
2023-01-27T19:43:29.385Z,80.25
2023-01-27T19:45:55.793Z,81.41
2023-01-27T19:48:22.221Z,81.32
2023-01-27T19:50:48.716Z,81.23
2023-01-27T19:53:15.284Z,80.88
2023-01-27T19:55:41.825Z,80.67
2023-01-27T19:58:08.357Z,80.61
2023-01-27T20:00:34.684Z,80.44
2023-01-27T20:03:01.315Z,80.62
2023-01-27T20:05:27.662Z,80.20
2023-01-27T20:07:54.084Z,80.01
2023-01-27T20:10:20.633Z,80.06
2023-01-27T20:12:46.976Z,80.02
2023-01-27T20:15:13.565Z,79.72
2023-01-27T20:17:40.291Z,79.50
2023-01-27T20:20:06.633Z,79.70
2023-01-27T20:22:32.990Z,79.49
2023-01-27T20:24:59.329Z,79.33
2023-01-27T20:27:25.678Z,79.17
2023-01-27T20:29:52.028Z,79.27
2023-01-27T20:32:18.613Z,79.27
2023-01-27T20:34:44.969Z,79.52
2023-01-27T20:37:11.313Z,79.60
2023-01-27T20:39:37.878Z,79.70
2023-01-27T20:42:04.236Z,79.91
2023-01-27T20:44:30.811Z,80.05
2023-01-27T20:46:57.227Z,80.21
2023-01-27T20:49:23.791Z,80.15
2023-01-27T20:51:50.123Z,80.18
2023-01-27T20:54:16.700Z,80.34
2023-01-27T20:56:43.266Z,80.33
2023-01-27T20:59:09.627Z,80.36
2023-01-27T21:01:35.995Z,80.22
2023-01-27T21:04:02.373Z,80.33
2023-01-27T21:06:28.930Z,80.10
2023-01-27T21:08:55.289Z,79.99
2023-01-27T21:11:21.616Z,80.00
2023-01-27T21:13:48.159Z,79.92
2023-01-27T21:16:14.548Z,79.99
2023-01-27T21:18:40.950Z,80.04
2023-01-27T21:21:07.292Z,80.23
2023-01-27T21:23:33.653Z,80.16
2023-01-27T21:26:00.011Z,80.09
2023-01-27T21:28:26.355Z,80.17
2023-01-27T21:30:52.956Z,80.28
2023-01-27T21:33:19.535Z,80.21
2023-01-27T21:35:45.868Z,80.43
2023-01-27T21:38:12.228Z,80.33
2023-01-27T21:40:38.555Z,80.31
2023-01-27T21:43:05.103Z,80.71
2023-01-27T21:45:31.431Z,80.61
2023-01-27T21:48:00.759Z,80.78
2023-01-27T21:50:27.325Z,80.51
2023-01-27T21:52:53.902Z,80.69
2023-01-27T21:55:20.227Z,80.48
2023-01-27T21:57:46.776Z,80.81
2023-01-27T22:00:13.149Z,80.93
2023-01-27T22:02:39.498Z,81.23
2023-01-27T22:05:05.908Z,80.91
2023-01-27T22:07:32.520Z,80.73
2023-01-27T22:09:58.837Z,81.25
2023-01-27T22:12:25.169Z,81.18
2023-01-27T22:14:51.698Z,81.09
2023-01-27T22:17:19.929Z,81.01
2023-01-27T22:19:46.441Z,80.81
2023-01-27T22:22:12.826Z,81.14
2023-01-27T22:24:39.400Z,80.86
2023-01-27T22:27:05.750Z,80.99
2023-01-27T22:29:32.316Z,81.04
2023-01-27T22:31:58.661Z,81.10
2023-01-27T22:34:25.229Z,81.08
2023-01-27T22:36:51.574Z,81.21
2023-01-27T22:39:17.929Z,81.12
2023-01-27T22:41:44.299Z,80.88
2023-01-27T22:44:10.682Z,80.96
2023-01-27T22:46:37.033Z,81.34
2023-01-27T22:49:03.367Z,81.11
2023-01-27T22:51:29.699Z,81.26
2023-01-27T22:53:56.048Z,80.81
2023-01-27T22:56:22.397Z,80.79
2023-01-27T22:58:48.750Z,80.53
2023-01-27T23:01:15.130Z,80.73
2023-01-27T23:03:41.697Z,80.80
2023-01-27T23:06:08.520Z,80.87
2023-01-27T23:08:34.867Z,80.79
2023-01-27T23:11:01.413Z,80.80
2023-01-27T23:13:27.734Z,80.59
2023-01-27T23:15:54.068Z,80.74
2023-01-27T23:18:20.392Z,80.63
2023-01-27T23:20:46.927Z,80.70
2023-01-27T23:23:13.309Z,80.93
2023-01-27T23:25:39.658Z,81.09
2023-01-27T23:28:06.009Z,81.05
2023-01-27T23:30:32.408Z,80.85
2023-01-27T23:32:58.768Z,80.70
2023-01-27T23:35:25.116Z,80.75
2023-01-27T23:37:51.489Z,80.54
2023-01-27T23:40:17.857Z,80.47
2023-01-27T23:42:44.225Z,80.99
2023-01-27T23:45:10.563Z,80.72
2023-01-27T23:47:36.903Z,80.71
2023-01-27T23:50:03.254Z,80.69
2023-01-27T23:52:29.611Z,81.15
2023-01-27T23:54:56.161Z,80.61
2023-01-27T23:57:22.723Z,80.92
2023-01-27T23:59:49.258Z,81.02
